createdAt,value
2023-02-12T00:01:50.201Z,31.35
2023-02-12T00:04:16.546Z,31.35
2023-02-12T00:06:44.636Z,31.38
2023-02-12T00:09:09.296Z,31.39
2023-02-12T00:11:35.665Z,31.44
2023-02-12T00:14:02.031Z,31.43
2023-02-12T00:16:28.406Z,31.49
2023-02-12T00:18:54.780Z,31.52
2023-02-12T00:21:21.147Z,31.53
2023-02-12T00:23:47.487Z,31.51
2023-02-12T00:26:13.873Z,31.58
2023-02-12T00:28:40.274Z,31.58
2023-02-12T00:31:06.702Z,31.63
2023-02-12T00:33:32.979Z,31.62
2023-02-12T00:35:59.373Z,31.65
2023-02-12T00:38:25.721Z,31.65
2023-02-12T00:40:52.121Z,31.65
2023-02-12T00:43:19.901Z,31.65
2023-02-12T00:45:44.934Z,31.70
2023-02-12T00:48:11.301Z,31.68
2023-02-12T00:50:37.681Z,31.70
2023-02-12T00:53:04.025Z,31.73
2023-02-12T00:55:30.398Z,31.73
2023-02-12T00:57:56.829Z,31.78
2023-02-12T01:00:23.194Z,31.77
2023-02-12T01:02:49.565Z,31.76
2023-02-12T01:05:16.011Z,31.76
2023-02-12T01:07:42.300Z,31.82
2023-02-12T01:10:08.681Z,31.80
2023-02-12T01:12:35.028Z,31.80
2023-02-12T01:15:01.407Z,31.87
2023-02-12T01:17:27.780Z,31.88
2023-02-12T01:19:54.170Z,31.85
2023-02-12T01:22:20.532Z,31.87
2023-02-12T01:24:46.916Z,31.89
2023-02-12T01:27:13.321Z,31.92
2023-02-12T01:29:39.715Z,31.94
2023-02-12T01:32:07.450Z,31.98
2023-02-12T01:34:32.511Z,32.01
2023-02-12T01:36:58.896Z,31.98
2023-02-12T01:39:25.267Z,32.02
2023-02-12T01:41:51.657Z,32.07
2023-02-12T01:44:18.052Z,32.09
2023-02-12T01:46:44.471Z,32.07
2023-02-12T01:49:10.763Z,32.13
2023-02-12T01:51:37.109Z,32.11
2023-02-12T01:54:03.500Z,32.12
2023-02-12T01:56:29.848Z,32.15
2023-02-12T01:58:56.266Z,32.08
2023-02-12T02:01:22.662Z,32.17
2023-02-12T02:03:48.991Z,32.15
2023-02-12T02:06:15.398Z,32.17
2023-02-12T02:08:41.769Z,32.20
2023-02-12T02:11:08.179Z,32.19
2023-02-12T02:13:34.575Z,32.20
2023-02-12T02:16:00.934Z,32.22
2023-02-12T02:18:27.315Z,32.20
2023-02-12T02:20:53.697Z,32.20
2023-02-12T02:23:20.066Z,32.25
2023-02-12T02:25:46.447Z,32.24
2023-02-12T02:28:12.915Z,32.27
2023-02-12T02:30:39.402Z,32.27
2023-02-12T02:33:05.616Z,32.26
2023-02-12T02:35:32.001Z,32.27
2023-02-12T02:37:58.347Z,32.27
2023-02-12T02:40:24.718Z,32.34
2023-02-12T02:42:51.071Z,32.32
2023-02-12T02:45:17.435Z,32.36
2023-02-12T02:47:43.773Z,32.37
2023-02-12T02:50:10.152Z,32.43
2023-02-12T02:52:36.494Z,32.45
2023-02-12T02:55:02.883Z,32.45
2023-02-12T02:57:29.254Z,32.49
2023-02-12T02:59:55.665Z,32.52
2023-02-12T03:02:22.055Z,32.47
2023-02-12T03:04:48.511Z,32.50
2023-02-12T03:07:14.854Z,32.47
2023-02-12T03:09:41.244Z,32.47
2023-02-12T03:12:07.601Z,32.44
2023-02-12T03:14:35.741Z,32.43
2023-02-12T03:17:00.389Z,32.44
2023-02-12T03:19:26.804Z,32.46
2023-02-12T03:21:53.133Z,32.49
2023-02-12T03:24:19.804Z,32.46
2023-02-12T03:26:46.158Z,32.53
2023-02-12T03:29:12.605Z,32.52
2023-02-12T03:31:39.015Z,32.51
2023-02-12T03:34:05.333Z,32.61
2023-02-12T03:36:31.676Z,32.60
2023-02-12T03:38:58.037Z,32.57
2023-02-12T03:41:24.398Z,32.58
2023-02-12T03:43:50.768Z,32.56
2023-02-12T03:46:17.164Z,32.61
2023-02-12T03:48:43.489Z,32.59
2023-02-12T03:51:09.859Z,32.62
2023-02-12T03:53:36.230Z,32.61
2023-02-12T03:56:02.567Z,32.63
2023-02-12T03:58:28.956Z,32.62
2023-02-12T04:00:55.293Z,32.65
2023-02-12T04:03:21.680Z,32.70
2023-02-12T04:05:48.024Z,32.64
2023-02-12T04:08:14.402Z,32.65
2023-02-12T04:10:40.740Z,32.62
2023-02-12T04:13:07.112Z,32.65
2023-02-12T04:15:33.465Z,32.66
2023-02-12T04:17:59.940Z,32.68
2023-02-12T04:20:26.275Z,32.72
2023-02-12T04:22:52.665Z,32.66
2023-02-12T04:25:19.007Z,32.67
2023-02-12T04:27:45.410Z,32.63
2023-02-12T04:30:11.742Z,32.68
2023-02-12T04:32:38.128Z,32.65
2023-02-12T04:35:04.469Z,32.65
2023-02-12T04:37:30.855Z,32.63
2023-02-12T04:39:57.222Z,32.68
2023-02-12T04:42:23.607Z,32.71
2023-02-12T04:44:49.976Z,32.68
2023-02-12T04:47:17.575Z,32.70
2023-02-12T04:49:42.720Z,32.74
2023-02-12T04:52:09.098Z,32.74
2023-02-12T04:54:35.438Z,32.72
2023-02-12T04:57:01.820Z,32.72
2023-02-12T04:59:28.186Z,32.82
2023-02-12T05:01:54.552Z,32.86
2023-02-12T05:04:20.910Z,32.85
2023-02-12T05:06:47.296Z,32.84
2023-02-12T05:09:13.628Z,32.84
2023-02-12T05:11:40.011Z,32.97
2023-02-12T05:14:06.362Z,32.97
2023-02-12T05:16:32.748Z,32.99
2023-02-12T05:18:59.092Z,32.99
2023-02-12T05:21:25.472Z,33.04
2023-02-12T05:23:51.818Z,33.04
2023-02-12T05:26:18.194Z,33.04
2023-02-12T05:28:44.546Z,33.07
2023-02-12T05:31:11.080Z,33.10
2023-02-12T05:33:37.279Z,33.10
2023-02-12T05:36:03.693Z,33.12
2023-02-12T05:38:30.001Z,33.17
2023-02-12T05:40:56.387Z,33.17
2023-02-12T05:43:23.704Z,33.17
2023-02-12T05:45:49.128Z,33.15
2023-02-12T05:48:15.467Z,33.06
2023-02-12T05:50:41.848Z,33.04
2023-02-12T05:53:08.179Z,32.92
2023-02-12T05:55:34.558Z,32.90
2023-02-12T05:58:00.896Z,32.81
2023-02-12T06:00:27.288Z,32.71
2023-02-12T06:02:53.661Z,32.53
2023-02-12T06:05:20.002Z,32.50
2023-02-12T06:07:46.338Z,32.23
2023-02-12T06:10:12.731Z,32.14
2023-02-12T06:12:39.071Z,32.28
2023-02-12T06:15:05.483Z,32.15
2023-02-12T06:17:31.817Z,32.29
2023-02-12T06:19:58.220Z,32.22
2023-02-12T06:22:24.563Z,32.20
2023-02-12T06:24:50.978Z,32.33
2023-02-12T06:27:17.311Z,32.49
2023-02-12T06:29:43.702Z,32.64
2023-02-12T06:32:10.071Z,32.57
2023-02-12T06:34:36.427Z,32.62
2023-02-12T06:37:02.778Z,32.74
2023-02-12T06:39:29.153Z,32.75
2023-02-12T06:41:55.536Z,32.72
2023-02-12T06:44:21.918Z,32.77
2023-02-12T06:46:48.320Z,32.82
2023-02-12T06:49:14.686Z,32.85
2023-02-12T06:51:41.043Z,32.91
2023-02-12T06:54:07.422Z,32.91
2023-02-12T06:56:33.766Z,32.93
2023-02-12T06:59:00.141Z,32.91
2023-02-12T07:01:26.511Z,32.97
2023-02-12T07:03:52.939Z,32.94
2023-02-12T07:06:19.236Z,33.03
2023-02-12T07:08:45.637Z,33.04
2023-02-12T07:11:11.983Z,33.03
2023-02-12T07:13:38.364Z,33.01
2023-02-12T07:16:04.722Z,32.99
2023-02-12T07:18:31.119Z,33.00
2023-02-12T07:20:57.454Z,33.01
2023-02-12T07:23:23.848Z,33.06
2023-02-12T07:25:50.178Z,33.04
2023-02-12T07:28:16.609Z,33.00
2023-02-12T07:30:42.962Z,33.01
2023-02-12T07:33:09.294Z,33.01
2023-02-12T07:35:35.630Z,32.96
2023-02-12T07:38:02.019Z,32.94
2023-02-12T07:40:28.381Z,32.97
2023-02-12T07:42:54.800Z,32.95
2023-02-12T07:45:21.136Z,32.96
2023-02-12T07:47:47.527Z,32.94
2023-02-12T07:50:13.873Z,32.94
2023-02-12T07:52:40.247Z,33.01
2023-02-12T07:55:06.595Z,33.01
2023-02-12T07:57:32.972Z,32.99
2023-02-12T07:59:59.312Z,33.02
2023-02-12T08:02:26.702Z,33.04
2023-02-12T08:04:52.045Z,33.05
2023-02-12T08:07:18.435Z,33.04
2023-02-12T08:09:44.768Z,33.05
2023-02-12T08:12:12.857Z,33.07
2023-02-12T08:14:37.499Z,33.09
2023-02-12T08:17:05.364Z,33.07
2023-02-12T08:19:30.232Z,33.09
2023-02-12T08:21:56.643Z,33.11
2023-02-12T08:24:22.960Z,33.04
2023-02-12T08:26:49.345Z,33.11
2023-02-12T08:29:15.717Z,33.10
2023-02-12T08:31:42.153Z,33.15
2023-02-12T08:34:08.435Z,33.12
2023-02-12T08:36:34.823Z,33.07
2023-02-12T08:39:01.157Z,33.10
2023-02-12T08:41:27.545Z,33.10
2023-02-12T08:43:53.877Z,33.13
2023-02-12T08:46:20.338Z,33.12
2023-02-12T08:48:46.635Z,33.09
2023-02-12T08:51:13.010Z,33.22
2023-02-12T08:53:39.343Z,33.17
2023-02-12T08:56:05.727Z,33.17
2023-02-12T08:58:32.134Z,33.19
2023-02-12T09:00:58.480Z,33.23
2023-02-12T09:03:24.809Z,33.23
2023-02-12T09:05:51.187Z,33.24
2023-02-12T09:08:17.529Z,33.26
2023-02-12T09:10:43.921Z,33.26
2023-02-12T09:13:10.252Z,33.29
2023-02-12T09:15:36.951Z,33.32
2023-02-12T09:18:03.282Z,33.36
2023-02-12T09:20:29.670Z,33.33
2023-02-12T09:22:56.001Z,33.33
2023-02-12T09:25:22.395Z,33.36
2023-02-12T09:27:48.724Z,33.33
2023-02-12T09:30:15.113Z,33.37
2023-02-12T09:32:41.447Z,33.38
2023-02-12T09:35:07.837Z,33.39
2023-02-12T09:37:34.178Z,33.39
2023-02-12T09:40:00.567Z,33.33
2023-02-12T09:42:26.910Z,33.35
2023-02-12T09:44:53.282Z,33.37
2023-02-12T09:47:19.620Z,33.36
2023-02-12T09:49:46.038Z,33.37
2023-02-12T09:52:14.517Z,33.39
2023-02-12T09:54:40.913Z,33.36
2023-02-12T09:57:07.255Z,33.38
2023-02-12T09:59:33.668Z,33.42
2023-02-12T10:02:00.016Z,33.37
2023-02-12T10:04:26.426Z,33.39
2023-02-12T10:06:52.733Z,33.38
2023-02-12T10:09:19.175Z,33.10
2023-02-12T10:11:45.513Z,32.97
2023-02-12T10:14:11.938Z,32.80
2023-02-12T10:16:38.585Z,32.59
2023-02-12T10:19:04.693Z,32.43
2023-02-12T10:21:31.028Z,32.27
2023-02-12T10:23:57.418Z,32.08
2023-02-12T10:26:23.744Z,31.99
2023-02-12T10:28:50.127Z,31.93
2023-02-12T10:31:16.562Z,31.78
2023-02-12T10:33:42.853Z,31.63
2023-02-12T10:36:09.211Z,31.52
2023-02-12T10:38:35.592Z,31.37
2023-02-12T10:41:01.998Z,31.31
2023-02-12T10:43:28.313Z,31.16
2023-02-12T10:45:54.895Z,31.03
2023-02-12T10:48:21.075Z,30.88
2023-02-12T10:50:47.378Z,30.85
2023-02-12T10:53:13.767Z,30.69
2023-02-12T10:55:40.142Z,30.55
2023-02-12T10:58:06.517Z,30.46
2023-02-12T11:00:32.854Z,30.40
2023-02-12T11:02:59.277Z,30.31
2023-02-12T11:05:25.611Z,30.18
2023-02-12T11:07:52.004Z,30.05
2023-02-12T11:10:18.334Z,29.94
2023-02-12T11:12:44.723Z,29.88
2023-02-12T11:15:11.065Z,29.76
2023-02-12T11:17:37.469Z,29.69
2023-02-12T11:20:05.994Z,29.53
2023-02-12T11:22:32.371Z,29.53
2023-02-12T11:24:58.708Z,29.42
2023-02-12T11:27:25.097Z,29.31
2023-02-12T11:29:51.419Z,29.25
2023-02-12T11:32:17.802Z,29.16
2023-02-12T11:34:44.144Z,29.04
2023-02-12T11:37:10.524Z,28.90
2023-02-12T11:39:36.856Z,28.90
2023-02-12T11:42:03.240Z,28.73
2023-02-12T11:44:29.579Z,28.60
2023-02-12T11:46:56.089Z,28.60
2023-02-12T11:49:22.334Z,28.58
2023-02-12T11:51:48.745Z,28.53
2023-02-12T11:54:15.077Z,28.40
2023-02-12T11:56:41.456Z,28.44
2023-02-12T11:59:07.802Z,28.28
2023-02-12T12:01:34.267Z,28.25
2023-02-12T12:04:00.545Z,28.24
2023-02-12T12:06:28.594Z,28.13
2023-02-12T12:08:53.265Z,28.10
2023-02-12T12:11:19.638Z,27.99
2023-02-12T12:13:46.003Z,28.01
2023-02-12T12:16:12.404Z,27.94
2023-02-12T12:18:38.733Z,27.91
2023-02-12T12:21:05.119Z,27.86
2023-02-12T12:23:31.484Z,27.76
2023-02-12T12:25:58.098Z,27.70
2023-02-12T12:28:24.321Z,27.57
2023-02-12T12:30:51.070Z,27.53
2023-02-12T12:33:17.327Z,27.48
2023-02-12T12:35:43.710Z,27.47
2023-02-12T12:38:10.050Z,27.49
2023-02-12T12:40:36.508Z,27.47
2023-02-12T12:43:02.850Z,27.47
2023-02-12T12:45:29.231Z,27.42
2023-02-12T12:47:55.574Z,27.39
2023-02-12T12:50:21.909Z,27.41
2023-02-12T12:52:49.685Z,27.39
2023-02-12T12:55:14.703Z,27.32
2023-02-12T12:57:41.086Z,27.34
2023-02-12T13:00:07.427Z,27.24
2023-02-12T13:02:33.860Z,27.23
2023-02-12T13:05:00.174Z,27.15
2023-02-12T13:07:26.531Z,27.02
2023-02-12T13:09:52.875Z,27.05
2023-02-12T13:12:19.246Z,27.02
2023-02-12T13:14:45.592Z,27.01
2023-02-12T13:17:11.968Z,26.90
2023-02-12T13:19:38.306Z,26.93
2023-02-12T13:22:04.692Z,26.91
2023-02-12T13:24:31.073Z,26.83
2023-02-12T13:26:57.444Z,26.76
2023-02-12T13:29:23.781Z,26.76
2023-02-12T13:31:50.296Z,26.77
2023-02-12T13:34:16.508Z,26.74
2023-02-12T13:36:42.896Z,26.71
2023-02-12T13:39:09.244Z,26.72
2023-02-12T13:41:35.633Z,26.67
2023-02-12T13:44:01.966Z,26.67
2023-02-12T13:46:28.364Z,26.64
2023-02-12T13:48:54.689Z,26.63
2023-02-12T13:51:21.068Z,26.47
2023-02-12T13:53:47.412Z,26.40
2023-02-12T13:56:13.797Z,26.40
2023-02-12T13:58:40.200Z,26.38
2023-02-12T14:01:06.563Z,26.34
2023-02-12T14:03:32.936Z,26.30
2023-02-12T14:05:59.345Z,26.31
2023-02-12T14:08:25.686Z,26.23
2023-02-12T14:10:52.067Z,26.20
2023-02-12T14:13:18.414Z,26.14
2023-02-12T14:15:44.892Z,26.11
2023-02-12T14:18:11.132Z,26.03
2023-02-12T14:20:37.525Z,26.00
2023-02-12T14:23:05.178Z,25.99
2023-02-12T14:25:30.253Z,25.96
2023-02-12T14:27:56.663Z,25.93
2023-02-12T14:30:23.062Z,25.94
2023-02-12T14:32:49.399Z,25.95
2023-02-12T14:35:15.780Z,25.87
2023-02-12T14:37:42.170Z,25.90
2023-02-12T14:40:08.552Z,25.88
2023-02-12T14:42:34.892Z,25.86
2023-02-12T14:45:01.282Z,25.83
2023-02-12T14:47:27.643Z,25.84
2023-02-12T14:49:54.027Z,25.80
2023-02-12T14:52:20.366Z,25.80
2023-02-12T14:54:46.742Z,25.80
2023-02-12T14:57:13.080Z,25.79
2023-02-12T14:59:39.463Z,25.70
2023-02-12T15:02:05.796Z,25.75
2023-02-12T15:04:32.206Z,25.90
2023-02-12T15:06:58.539Z,25.97
2023-02-12T15:09:24.921Z,26.18
2023-02-12T15:11:51.292Z,26.24
2023-02-12T15:14:17.652Z,26.32
2023-02-12T15:16:43.982Z,26.34
2023-02-12T15:19:10.361Z,26.49
2023-02-12T15:21:36.703Z,26.54
2023-02-12T15:24:03.085Z,26.63
2023-02-12T15:26:29.431Z,26.72
2023-02-12T15:28:55.826Z,26.84
2023-02-12T15:31:22.556Z,26.85
2023-02-12T15:33:48.884Z,26.95
2023-02-12T15:36:15.224Z,26.96
2023-02-12T15:38:41.678Z,27.10
2023-02-12T15:41:07.972Z,27.11
2023-02-12T15:43:34.365Z,27.19
2023-02-12T15:46:00.701Z,27.23
2023-02-12T15:48:27.111Z,27.34
2023-02-12T15:50:53.452Z,27.37
2023-02-12T15:53:19.842Z,27.49
2023-02-12T15:55:46.247Z,27.48
2023-02-12T15:58:12.622Z,27.45
2023-02-12T16:00:38.990Z,27.63
2023-02-12T16:03:05.371Z,27.60
2023-02-12T16:05:32.974Z,27.64
2023-02-12T16:07:58.093Z,27.76
2023-02-12T16:10:24.433Z,27.82
2023-02-12T16:12:50.825Z,27.80
2023-02-12T16:15:17.149Z,27.89
2023-02-12T16:17:43.550Z,27.95
2023-02-12T16:20:09.884Z,28.04
2023-02-12T16:22:36.269Z,28.11
2023-02-12T16:25:02.611Z,28.14
2023-02-12T16:27:28.996Z,28.24
2023-02-12T16:29:55.335Z,28.31
2023-02-12T16:32:21.751Z,28.40
2023-02-12T16:34:48.086Z,28.43
2023-02-12T16:37:14.466Z,28.46
2023-02-12T16:39:40.823Z,28.50
2023-02-12T16:42:07.193Z,28.57
2023-02-12T16:44:33.541Z,28.62
2023-02-12T16:46:59.926Z,28.68
2023-02-12T16:49:26.271Z,28.82
2023-02-12T16:51:52.652Z,28.84
2023-02-12T16:54:18.991Z,28.92
2023-02-12T16:56:45.383Z,29.07
2023-02-12T16:59:11.720Z,29.11
2023-02-12T17:01:38.103Z,29.21
2023-02-12T17:04:04.458Z,29.31
2023-02-12T17:06:30.860Z,29.40
2023-02-12T17:08:57.195Z,29.48
2023-02-12T17:11:23.586Z,29.57
2023-02-12T17:13:49.930Z,29.72
2023-02-12T17:16:29.491Z,29.74
2023-02-12T17:18:42.672Z,29.82
2023-02-12T17:21:09.059Z,29.94
2023-02-12T17:23:35.399Z,29.97
2023-02-12T17:26:01.789Z,30.04
2023-02-12T17:28:28.212Z,30.11
2023-02-12T17:30:54.728Z,30.17
2023-02-12T17:33:20.884Z,30.13
2023-02-12T17:35:47.262Z,30.33
2023-02-12T17:38:13.618Z,30.45
2023-02-12T17:40:40.004Z,30.56
2023-02-12T17:43:06.340Z,30.72
2023-02-12T17:45:32.789Z,30.74
2023-02-12T17:47:59.066Z,30.84
2023-02-12T17:50:25.464Z,30.95
2023-02-12T17:52:51.821Z,30.88
2023-02-12T17:55:20.780Z,30.94
2023-02-12T17:57:44.527Z,30.93
2023-02-12T18:00:10.915Z,31.09
2023-02-12T18:02:37.271Z,31.16
2023-02-12T18:05:03.696Z,31.19
2023-02-12T18:07:30.019Z,31.20
2023-02-12T18:09:56.427Z,31.20
2023-02-12T18:12:23.729Z,31.25
2023-02-12T18:14:49.152Z,31.34
2023-02-12T18:17:15.494Z,31.40
2023-02-12T18:19:41.880Z,31.41
2023-02-12T18:22:08.219Z,31.51
2023-02-12T18:24:34.614Z,31.57
2023-02-12T18:27:00.951Z,31.63
2023-02-12T18:29:27.339Z,31.65
2023-02-12T18:31:53.744Z,31.73
2023-02-12T18:34:20.303Z,31.71
2023-02-12T18:36:46.647Z,31.85
2023-02-12T18:39:13.023Z,31.91
2023-02-12T18:41:39.367Z,31.85
2023-02-12T18:44:05.740Z,31.85
2023-02-12T18:46:32.095Z,31.85
2023-02-12T18:48:59.876Z,31.85
2023-02-12T18:51:24.816Z,31.92
2023-02-12T18:53:51.197Z,31.96
2023-02-12T18:56:17.545Z,31.95
2023-02-12T18:58:43.928Z,32.13
2023-02-12T19:01:10.279Z,32.22
2023-02-12T19:03:36.645Z,32.18
2023-02-12T19:06:02.995Z,32.28
2023-02-12T19:08:29.362Z,32.32
2023-02-12T19:10:55.995Z,32.23
2023-02-12T19:13:22.109Z,32.43
2023-02-12T19:15:48.501Z,32.39
2023-02-12T19:18:14.835Z,32.46
2023-02-12T19:20:41.170Z,32.54
2023-02-12T19:23:07.567Z,32.51
2023-02-12T19:25:33.908Z,32.60
2023-02-12T19:28:00.387Z,32.64
2023-02-12T19:30:26.642Z,32.65
2023-02-12T19:32:53.024Z,32.69
2023-02-12T19:35:19.357Z,32.72
2023-02-12T19:37:45.743Z,32.70
2023-02-12T19:40:12.094Z,32.68
2023-02-12T19:42:38.489Z,32.70
2023-02-12T19:45:04.828Z,32.63
2023-02-12T19:47:31.220Z,32.71
2023-02-12T19:49:58.749Z,32.79
2023-02-12T19:52:23.946Z,32.82
2023-02-12T19:54:50.298Z,32.75
2023-02-12T19:57:16.681Z,32.72
2023-02-12T19:59:43.016Z,32.78
2023-02-12T20:02:09.401Z,32.73
2023-02-12T20:04:35.743Z,32.84
2023-02-12T20:07:02.120Z,32.92
2023-02-12T20:09:28.465Z,32.87
2023-02-12T20:11:54.891Z,32.78
2023-02-12T20:14:21.246Z,32.85
2023-02-12T20:16:47.746Z,32.88
2023-02-12T20:19:14.092Z,32.88
2023-02-12T20:21:40.458Z,32.89
2023-02-12T20:24:06.803Z,33.04
2023-02-12T20:26:33.205Z,33.02
2023-02-12T20:28:59.552Z,32.96
2023-02-12T20:31:26.048Z,33.02
2023-02-12T20:33:53.578Z,32.90
2023-02-12T20:36:18.676Z,32.92
2023-02-12T20:38:45.028Z,33.00
2023-02-12T20:41:11.385Z,32.94
2023-02-12T20:43:37.734Z,33.03
2023-02-12T20:46:04.115Z,32.99
2023-02-12T20:48:30.482Z,33.05
2023-02-12T20:50:57.295Z,33.04
2023-02-12T20:53:23.203Z,33.04
2023-02-12T20:55:49.576Z,33.10
2023-02-12T20:58:15.919Z,33.17
2023-02-12T21:00:42.303Z,33.19
2023-02-12T21:03:08.637Z,33.20
2023-02-12T21:05:35.024Z,33.22
2023-02-12T21:08:01.363Z,33.23
2023-02-12T21:10:29.581Z,33.23
2023-02-12T21:12:54.070Z,33.32
2023-02-12T21:15:20.461Z,33.30
2023-02-12T21:17:46.811Z,33.26
2023-02-12T21:20:13.189Z,33.33
2023-02-12T21:22:39.510Z,33.36
2023-02-12T21:25:05.902Z,33.36
2023-02-12T21:27:32.246Z,33.36
2023-02-12T21:29:58.633Z,33.39
2023-02-12T21:32:25.122Z,33.38
2023-02-12T21:34:51.371Z,33.40
2023-02-12T21:37:17.715Z,33.40
2023-02-12T21:39:44.099Z,33.46
2023-02-12T21:42:10.532Z,33.46
2023-02-12T21:44:36.865Z,33.49
2023-02-12T21:47:03.215Z,33.51
2023-02-12T21:49:29.582Z,33.55
2023-02-12T21:51:55.955Z,33.53
2023-02-12T21:54:22.335Z,33.59
2023-02-12T21:56:48.679Z,33.56
2023-02-12T21:59:15.063Z,33.59
2023-02-12T22:01:41.401Z,33.57
2023-02-12T22:04:07.773Z,33.61
2023-02-12T22:06:34.118Z,33.62
2023-02-12T22:09:00.578Z,33.62
2023-02-12T22:11:26.909Z,33.67
2023-02-12T22:13:53.344Z,33.72
2023-02-12T22:16:19.837Z,33.70
2023-02-12T22:18:46.175Z,33.69
2023-02-12T22:21:13.583Z,33.71
2023-02-12T22:23:38.896Z,33.75
2023-02-12T22:26:05.241Z,33.75
2023-02-12T22:28:31.643Z,33.77
2023-02-12T22:30:58.310Z,33.77
2023-02-12T22:33:24.341Z,33.76
2023-02-12T22:35:50.703Z,33.78
2023-02-12T22:38:17.079Z,33.86
2023-02-12T22:40:43.412Z,33.87
2023-02-12T22:43:09.810Z,33.84
2023-02-12T22:45:36.162Z,33.84
2023-02-12T22:48:02.549Z,33.92
2023-02-12T22:50:28.882Z,33.95
2023-02-12T22:52:55.265Z,34.00
2023-02-12T22:55:21.597Z,34.04
2023-02-12T22:57:47.997Z,34.01
2023-02-12T23:00:14.339Z,34.05
2023-02-12T23:02:40.727Z,34.00
2023-02-12T23:05:07.056Z,34.02
2023-02-12T23:07:33.437Z,34.01
2023-02-12T23:09:59.852Z,34.02
2023-02-12T23:12:26.186Z,34.06
2023-02-12T23:14:52.598Z,34.06
2023-02-12T23:17:18.946Z,34.05
2023-02-12T23:19:45.356Z,34.07
2023-02-12T23:22:14.125Z,34.08
2023-02-12T23:24:40.520Z,34.10
2023-02-12T23:27:06.861Z,34.11
2023-02-12T23:29:33.284Z,34.15
2023-02-12T23:31:59.647Z,34.10
2023-02-12T23:34:28.429Z,34.10
2023-02-12T23:36:54.766Z,34.11
2023-02-12T23:39:21.167Z,34.14
2023-02-12T23:41:47.528Z,34.16
2023-02-12T23:44:13.909Z,34.18
2023-02-12T23:46:40.257Z,34.25
2023-02-12T23:49:06.667Z,34.26
2023-02-12T23:51:33.006Z,34.24
2023-02-12T23:53:59.386Z,34.29
2023-02-12T23:56:25.729Z,34.26
2023-02-12T23:58:52.149Z,34.27
